sensor_id;sensor_type;location;lat;lon;timestamp;pressure;altitude;pressure_sealevel;temperature;humidity
75497;BME280;64074;47.540;19.072;2023-07-22T00:01:13;100117.69;;;19.89;78.98
75497;BME280;64074;47.540;19.072;2023-07-22T00:04:16;100136.53;;;19.87;80.06
75497;BME280;64074;47.540;19.072;2023-07-22T00:07:20;100120.38;;;19.86;79.45
75497;BME280;64074;47.540;19.072;2023-07-22T00:10:23;100121.25;;;19.90;79.43
75497;BME280;64074;47.540;19.072;2023-07-22T00:13:25;100116.59;;;19.94;79.57
75497;BME280;64074;47.540;19.072;2023-07-22T00:16:30;100115.00;;;19.74;79.14
75497;BME280;64074;47.540;19.072;2023-07-22T00:19:33;100126.34;;;19.53;79.43
75497;BME280;64074;47.540;19.072;2023-07-22T00:22:38;100124.22;;;19.62;79.73
75497;BME280;64074;47.540;19.072;2023-07-22T00:25:42;100123.47;;;19.30;80.13
75497;BME280;64074;47.540;19.072;2023-07-22T00:28:45;100122.69;;;19.29;80.04
75497;BME280;64074;47.540;19.072;2023-07-22T00:31:47;100114.19;;;19.34;80.53
75497;BME280;64074;47.540;19.072;2023-07-22T00:34:52;100111.34;;;19.50;79.38
75497;BME280;64074;47.540;19.072;2023-07-22T00:37:55;100114.69;;;19.40;80.04
75497;BME280;64074;47.540;19.072;2023-07-22T00:40:58;100115.94;;;19.27;80.38
75497;BME280;64074;47.540;19.072;2023-07-22T00:44:00;100118.09;;;19.33;80.60
75497;BME280;64074;47.540;19.072;2023-07-22T00:47:04;100121.38;;;19.23;80.02
75497;BME280;64074;47.540;19.072;2023-07-22T00:50:08;100137.03;;;19.39;79.84
75497;BME280;64074;47.540;19.072;2023-07-22T00:53:11;100119.25;;;19.52;79.73
75497;BME280;64074;47.540;19.072;2023-07-22T00:56:15;100128.19;;;19.64;78.89
75497;BME280;64074;47.540;19.072;2023-07-22T00:59:18;100141.72;;;19.73;78.59
75497;BME280;64074;47.540;19.072;2023-07-22T01:02:22;100146.66;;;19.64;78.61
75497;BME280;64074;47.540;19.072;2023-07-22T01:05:26;100150.28;;;19.68;78.40
75497;BME280;64074;47.540;19.072;2023-07-22T01:08:30;100154.66;;;19.53;78.92
75497;BME280;64074;47.540;19.072;2023-07-22T01:11:34;100174.88;;;19.45;79.22
75497;BME280;64074;47.540;19.072;2023-07-22T01:14:39;100175.28;;;19.28;79.67
75497;BME280;64074;47.540;19.072;2023-07-22T01:17:43;100167.06;;;19.12;79.95
75497;BME280;64074;47.540;19.072;2023-07-22T01:20:47;100168.75;;;19.17;79.85
75497;BME280;64074;47.540;19.072;2023-07-22T01:23:52;100174.31;;;19.36;79.28
75497;BME280;64074;47.540;19.072;2023-07-22T01:26:55;100176.94;;;19.32;79.35
75497;BME280;64074;47.540;19.072;2023-07-22T01:29:59;100178.44;;;19.46;79.14
75497;BME280;64074;47.540;19.072;2023-07-22T01:33:05;100188.63;;;19.45;79.28
75497;BME280;64074;47.540;19.072;2023-07-22T01:36:10;100189.16;;;19.51;78.74
75497;BME280;64074;47.540;19.072;2023-07-22T01:39:13;100193.72;;;19.59;79.06
75497;BME280;64074;47.540;19.072;2023-07-22T01:42:17;100192.34;;;19.53;79.15
75497;BME280;64074;47.540;19.072;2023-07-22T01:45:20;100190.88;;;19.40;79.68
75497;BME280;64074;47.540;19.072;2023-07-22T01:48:23;100194.22;;;19.49;78.53
75497;BME280;64074;47.540;19.072;2023-07-22T01:51:27;100204.59;;;19.55;78.17
75497;BME280;64074;47.540;19.072;2023-07-22T01:54:30;100212.22;;;19.46;78.65
75497;BME280;64074;47.540;19.072;2023-07-22T01:57:33;100215.84;;;19.50;78.20
75497;BME280;64074;47.540;19.072;2023-07-22T02:00:36;100220.66;;;19.53;78.41
75497;BME280;64074;47.540;19.072;2023-07-22T02:03:39;100213.66;;;19.40;79.34
75497;BME280;64074;47.540;19.072;2023-07-22T02:06:43;100217.13;;;19.37;79.46
75497;BME280;64074;47.540;19.072;2023-07-22T02:09:47;100219.69;;;19.46;79.49
75497;BME280;64074;47.540;19.072;2023-07-22T02:12:50;100226.28;;;19.25;79.58
75497;BME280;64074;47.540;19.072;2023-07-22T02:15:54;100237.69;;;19.27;79.51
75497;BME280;64074;47.540;19.072;2023-07-22T02:18:57;100233.66;;;18.90;81.17
75497;BME280;64074;47.540;19.072;2023-07-22T02:22:00;100233.00;;;18.81;81.51
75497;BME280;64074;47.540;19.072;2023-07-22T02:25:04;100248.84;;;18.71;81.85
75497;BME280;64074;47.540;19.072;2023-07-22T02:28:08;100242.91;;;18.69;82.11
75497;BME280;64074;47.540;19.072;2023-07-22T02:31:11;100247.09;;;18.79;81.69
75497;BME280;64074;47.540;19.072;2023-07-22T02:34:14;100247.19;;;18.98;81.27
75497;BME280;64074;47.540;19.072;2023-07-22T02:37:17;100248.53;;;19.04;80.40
75497;BME280;64074;47.540;19.072;2023-07-22T02:40:21;100241.19;;;19.09;80.62
75497;BME280;64074;47.540;19.072;2023-07-22T02:43:23;100254.31;;;19.15;80.31
75497;BME280;64074;47.540;19.072;2023-07-22T02:46:26;100252.72;;;19.14;80.21
75497;BME280;64074;47.540;19.072;2023-07-22T02:49:29;100267.16;;;19.27;80.47
75497;BME280;64074;47.540;19.072;2023-07-22T02:52:32;100270.63;;;19.40;79.31
75497;BME280;64074;47.540;19.072;2023-07-22T02:55:35;100273.09;;;19.45;79.08
75497;BME280;64074;47.540;19.072;2023-07-22T02:58:39;100266.06;;;19.31;80.01
75497;BME280;64074;47.540;19.072;2023-07-22T03:01:44;100274.44;;;19.35;79.41
75497;BME280;64074;47.540;19.072;2023-07-22T03:04:47;100274.00;;;19.17;79.82
75497;BME280;64074;47.540;19.072;2023-07-22T03:07:50;100273.34;;;19.24;79.79
75497;BME280;64074;47.540;19.072;2023-07-22T03:10:53;100280.72;;;19.35;78.89
75497;BME280;64074;47.540;19.072;2023-07-22T03:13:56;100281.16;;;19.38;79.15
75497;BME280;64074;47.540;19.072;2023-07-22T03:16:59;100281.59;;;19.24;80.25
75497;BME280;64074;47.540;19.072;2023-07-22T03:20:03;100281.41;;;19.01;80.21
75497;BME280;64074;47.540;19.072;2023-07-22T03:23:22;100284.00;;;19.10;80.09
75497;BME280;64074;47.540;19.072;2023-07-22T03:26:26;100271.31;;;19.05;80.83
75497;BME280;64074;47.540;19.072;2023-07-22T03:29:30;100275.41;;;19.11;80.38
75497;BME280;64074;47.540;19.072;2023-07-22T03:32:33;100283.56;;;19.23;79.78
75497;BME280;64074;47.540;19.072;2023-07-22T03:35:36;100286.56;;;19.50;79.20
75497;BME280;64074;47.540;19.072;2023-07-22T03:38:39;100283.09;;;19.53;78.82
75497;BME280;64074;47.540;19.072;2023-07-22T03:41:42;100278.97;;;19.59;78.99
75497;BME280;64074;47.540;19.072;2023-07-22T03:44:45;100274.34;;;19.63;79.02
75497;BME280;64074;47.540;19.072;2023-07-22T03:48:06;100280.72;;;19.67;79.01
75497;BME280;64074;47.540;19.072;2023-07-22T03:51:10;100290.66;;;19.72;78.85
75497;BME280;64074;47.540;19.072;2023-07-22T03:54:23;100293.47;;;19.75;78.33
75497;BME280;64074;47.540;19.072;2023-07-22T03:57:27;100281.66;;;19.75;78.40
75497;BME280;64074;47.540;19.072;2023-07-22T04:00:30;100288.13;;;19.82;78.17
75497;BME280;64074;47.540;19.072;2023-07-22T04:03:33;100301.72;;;19.75;77.88
75497;BME280;64074;47.540;19.072;2023-07-22T04:06:36;100302.81;;;19.71;78.23
75497;BME280;64074;47.540;19.072;2023-07-22T04:09:40;100296.44;;;19.66;78.06
75497;BME280;64074;47.540;19.072;2023-07-22T04:12:44;100298.09;;;19.71;77.49
75497;BME280;64074;47.540;19.072;2023-07-22T04:15:47;100288.16;;;20.02;77.54
75497;BME280;64074;47.540;19.072;2023-07-22T04:18:50;100291.44;;;20.07;77.86
75497;BME280;64074;47.540;19.072;2023-07-22T04:21:54;100289.94;;;20.10;77.66
75497;BME280;64074;47.540;19.072;2023-07-22T04:24:57;100290.00;;;20.13;78.00
75497;BME280;64074;47.540;19.072;2023-07-22T04:28:04;100292.47;;;20.18;78.05
75497;BME280;64074;47.540;19.072;2023-07-22T04:31:08;100297.47;;;20.13;76.94
75497;BME280;64074;47.540;19.072;2023-07-22T04:34:12;100286.94;;;19.99;76.50
75497;BME280;64074;47.540;19.072;2023-07-22T04:37:15;100292.09;;;20.20;76.03
75497;BME280;64074;47.540;19.072;2023-07-22T04:40:20;100290.50;;;20.19;74.75
75497;BME280;64074;47.540;19.072;2023-07-22T04:43:23;100289.56;;;20.11;74.88
75497;BME280;64074;47.540;19.072;2023-07-22T04:46:28;100295.34;;;20.06;74.67
75497;BME280;64074;47.540;19.072;2023-07-22T04:49:31;100291.78;;;20.06;74.52
75497;BME280;64074;47.540;19.072;2023-07-22T04:52:37;100301.44;;;19.80;75.38
75497;BME280;64074;47.540;19.072;2023-07-22T04:55:41;100297.34;;;19.90;75.79
75497;BME280;64074;47.540;19.072;2023-07-22T04:58:43;100313.66;;;19.98;75.83
75497;BME280;64074;47.540;19.072;2023-07-22T05:01:47;100322.47;;;19.88;75.75
75497;BME280;64074;47.540;19.072;2023-07-22T05:04:50;100327.91;;;19.85;75.88
75497;BME280;64074;47.540;19.072;2023-07-22T05:07:54;100326.41;;;19.72;76.99
75497;BME280;64074;47.540;19.072;2023-07-22T05:10:57;100327.47;;;19.83;76.21
75497;BME280;64074;47.540;19.072;2023-07-22T05:14:00;100319.53;;;19.97;76.05
75497;BME280;64074;47.540;19.072;2023-07-22T05:17:03;100316.25;;;19.91;76.79
75497;BME280;64074;47.540;19.072;2023-07-22T05:20:07;100326.22;;;19.80;77.16
75497;BME280;64074;47.540;19.072;2023-07-22T05:23:13;100322.13;;;19.90;76.42
75497;BME280;64074;47.540;19.072;2023-07-22T05:26:16;100339.72;;;19.70;76.11
75497;BME280;64074;47.540;19.072;2023-07-22T05:29:18;100326.66;;;19.82;75.55
75497;BME280;64074;47.540;19.072;2023-07-22T05:32:21;100340.41;;;19.82;75.85
75497;BME280;64074;47.540;19.072;2023-07-22T05:35:35;100344.72;;;19.99;75.38
75497;BME280;64074;47.540;19.072;2023-07-22T05:38:38;100341.56;;;19.81;75.85
75497;BME280;64074;47.540;19.072;2023-07-22T05:41:40;100348.91;;;19.93;76.38
75497;BME280;64074;47.540;19.072;2023-07-22T05:44:43;100341.75;;;19.88;75.17
75497;BME280;64074;47.540;19.072;2023-07-22T05:47:46;100357.09;;;19.89;74.72
75497;BME280;64074;47.540;19.072;2023-07-22T05:50:49;100354.44;;;19.93;74.66
75497;BME280;64074;47.540;19.072;2023-07-22T05:53:52;100364.34;;;19.97;74.53
75497;BME280;64074;47.540;19.072;2023-07-22T05:56:55;100359.28;;;20.00;74.70
75497;BME280;64074;47.540;19.072;2023-07-22T05:59:58;100357.38;;;19.84;74.83
75497;BME280;64074;47.540;19.072;2023-07-22T06:03:13;100355.06;;;19.86;74.48
75497;BME280;64074;47.540;19.072;2023-07-22T06:06:19;100360.09;;;20.00;74.74
75497;BME280;64074;47.540;19.072;2023-07-22T06:09:25;100366.22;;;20.09;74.11
75497;BME280;64074;47.540;19.072;2023-07-22T06:12:28;100366.72;;;20.15;74.47
75497;BME280;64074;47.540;19.072;2023-07-22T06:15:32;100372.88;;;20.08;74.51
75497;BME280;64074;47.540;19.072;2023-07-22T06:18:35;100374.56;;;20.13;73.55
75497;BME280;64074;47.540;19.072;2023-07-22T06:21:37;100372.03;;;20.23;73.78
75497;BME280;64074;47.540;19.072;2023-07-22T06:24:41;100375.66;;;20.63;72.48
75497;BME280;64074;47.540;19.072;2023-07-22T06:27:44;100373.22;;;20.57;72.25
75497;BME280;64074;47.540;19.072;2023-07-22T06:30:47;100376.41;;;20.60;71.49
75497;BME280;64074;47.540;19.072;2023-07-22T06:33:50;100370.44;;;20.77;71.93
75497;BME280;64074;47.540;19.072;2023-07-22T06:36:53;100363.06;;;21.04;70.76
75497;BME280;64074;47.540;19.072;2023-07-22T06:39:57;100366.19;;;21.02;70.33
75497;BME280;64074;47.540;19.072;2023-07-22T06:43:00;100377.09;;;20.95;70.84
75497;BME280;64074;47.540;19.072;2023-07-22T06:46:04;100369.44;;;21.27;68.96
75497;BME280;64074;47.540;19.072;2023-07-22T06:49:09;100374.00;;;21.39;68.76
75497;BME280;64074;47.540;19.072;2023-07-22T06:52:12;100372.97;;;21.47;68.46
75497;BME280;64074;47.540;19.072;2023-07-22T06:55:16;100376.34;;;21.60;68.75
75497;BME280;64074;47.540;19.072;2023-07-22T06:58:20;100376.94;;;21.49;67.82
75497;BME280;64074;47.540;19.072;2023-07-22T07:01:25;100380.81;;;21.68;68.45
75497;BME280;64074;47.540;19.072;2023-07-22T07:04:28;100381.97;;;21.67;68.06
75497;BME280;64074;47.540;19.072;2023-07-22T07:07:31;100380.75;;;21.64;68.09
75497;BME280;64074;47.540;19.072;2023-07-22T07:10:37;100388.03;;;21.30;68.35
75497;BME280;64074;47.540;19.072;2023-07-22T07:13:42;100388.16;;;21.83;67.77
75497;BME280;64074;47.540;19.072;2023-07-22T07:16:45;100390.25;;;21.67;67.44
75497;BME280;64074;47.540;19.072;2023-07-22T07:19:48;100382.66;;;21.83;67.08
75497;BME280;64074;47.540;19.072;2023-07-22T07:22:51;100388.59;;;21.85;66.90
75497;BME280;64074;47.540;19.072;2023-07-22T07:25:54;100389.75;;;22.07;66.62
75497;BME280;64074;47.540;19.072;2023-07-22T07:28:59;100387.72;;;21.81;67.06
75497;BME280;64074;47.540;19.072;2023-07-22T07:32:02;100389.00;;;21.87;66.56
75497;BME280;64074;47.540;19.072;2023-07-22T07:35:07;100389.09;;;22.17;65.82
75497;BME280;64074;47.540;19.072;2023-07-22T07:38:11;100399.22;;;22.06;66.73
75497;BME280;64074;47.540;19.072;2023-07-22T07:41:15;100399.28;;;22.39;65.32
75497;BME280;64074;47.540;19.072;2023-07-22T07:44:17;100396.63;;;22.20;65.15
75497;BME280;64074;47.540;19.072;2023-07-22T07:47:20;100406.38;;;22.37;64.36
75497;BME280;64074;47.540;19.072;2023-07-22T07:50:24;100408.44;;;22.17;63.56
75497;BME280;64074;47.540;19.072;2023-07-22T07:53:28;100415.66;;;22.25;64.53
75497;BME280;64074;47.540;19.072;2023-07-22T07:56:30;100425.00;;;22.44;63.98
75497;BME280;64074;47.540;19.072;2023-07-22T07:59:34;100429.31;;;22.71;63.25
75497;BME280;64074;47.540;19.072;2023-07-22T08:02:40;100440.06;;;22.50;62.69
75497;BME280;64074;47.540;19.072;2023-07-22T08:05:44;100433.63;;;22.38;62.56
75497;BME280;64074;47.540;19.072;2023-07-22T08:08:46;100447.44;;;22.68;62.13
75497;BME280;64074;47.540;19.072;2023-07-22T08:11:50;100460.47;;;22.94;60.92
75497;BME280;64074;47.540;19.072;2023-07-22T08:14:53;100461.59;;;23.23;60.61
75497;BME280;64074;47.540;19.072;2023-07-22T08:17:57;100471.00;;;23.15;60.64
75497;BME280;64074;47.540;19.072;2023-07-22T08:21:03;100483.09;;;22.77;61.45
75497;BME280;64074;47.540;19.072;2023-07-22T08:24:07;100480.09;;;23.16;60.36
75497;BME280;64074;47.540;19.072;2023-07-22T08:27:10;100484.63;;;23.31;59.51
75497;BME280;64074;47.540;19.072;2023-07-22T08:30:13;100474.50;;;23.46;58.65
75497;BME280;64074;47.540;19.072;2023-07-22T08:33:16;100480.47;;;23.51;58.82
75497;BME280;64074;47.540;19.072;2023-07-22T08:36:32;100485.88;;;23.37;58.13
75497;BME280;64074;47.540;19.072;2023-07-22T08:39:36;100492.31;;;23.48;57.70
75497;BME280;64074;47.540;19.072;2023-07-22T08:42:41;100506.81;;;23.05;58.28
75497;BME280;64074;47.540;19.072;2023-07-22T08:45:47;100504.41;;;23.33;57.49
75497;BME280;64074;47.540;19.072;2023-07-22T08:48:53;100511.50;;;23.30;56.01
75497;BME280;64074;47.540;19.072;2023-07-22T08:51:56;100501.41;;;23.49;55.37
75497;BME280;64074;47.540;19.072;2023-07-22T08:55:02;100499.84;;;23.85;55.68
75497;BME280;64074;47.540;19.072;2023-07-22T08:58:08;100516.50;;;23.88;54.47
75497;BME280;64074;47.540;19.072;2023-07-22T09:01:11;100529.03;;;23.45;53.63
75497;BME280;64074;47.540;19.072;2023-07-22T09:04:15;100516.06;;;23.53;53.74
75497;BME280;64074;47.540;19.072;2023-07-22T09:07:18;100528.59;;;24.14;53.91
75497;BME280;64074;47.540;19.072;2023-07-22T09:10:22;100525.31;;;24.01;52.79
75497;BME280;64074;47.540;19.072;2023-07-22T09:13:28;100528.19;;;24.12;52.55
75497;BME280;64074;47.540;19.072;2023-07-22T09:16:31;100529.59;;;24.36;52.16
75497;BME280;64074;47.540;19.072;2023-07-22T09:19:35;100533.44;;;24.28;52.50
75497;BME280;64074;47.540;19.072;2023-07-22T09:22:38;100535.81;;;24.25;52.64
75497;BME280;64074;47.540;19.072;2023-07-22T09:25:42;100551.50;;;24.51;50.52
75497;BME280;64074;47.540;19.072;2023-07-22T09:28:58;100539.25;;;24.08;50.93
75497;BME280;64074;47.540;19.072;2023-07-22T09:32:01;100530.44;;;24.43;50.94
75497;BME280;64074;47.540;19.072;2023-07-22T09:35:06;100528.06;;;24.42;49.14
75497;BME280;64074;47.540;19.072;2023-07-22T09:38:12;100523.75;;;24.51;49.83
75497;BME280;64074;47.540;19.072;2023-07-22T09:41:18;100512.16;;;24.32;49.11
75497;BME280;64074;47.540;19.072;2023-07-22T09:44:23;100515.53;;;24.62;49.32
75497;BME280;64074;47.540;19.072;2023-07-22T09:47:26;100510.31;;;24.53;49.43
75497;BME280;64074;47.540;19.072;2023-07-22T09:50:30;100508.38;;;24.58;49.74
75497;BME280;64074;47.540;19.072;2023-07-22T09:53:33;100508.84;;;24.70;48.64
75497;BME280;64074;47.540;19.072;2023-07-22T09:56:45;100501.00;;;24.79;48.68
75497;BME280;64074;47.540;19.072;2023-07-22T09:59:51;100500.47;;;25.32;48.34
75497;BME280;64074;47.540;19.072;2023-07-22T10:02:59;100511.75;;;24.92;46.96
75497;BME280;64074;47.540;19.072;2023-07-22T10:06:02;100510.22;;;25.01;45.89
75497;BME280;64074;47.540;19.072;2023-07-22T10:09:07;100514.25;;;25.07;46.14
75497;BME280;64074;47.540;19.072;2023-07-22T10:12:13;100513.91;;;25.23;46.39
75497;BME280;64074;47.540;19.072;2023-07-22T10:15:17;100511.91;;;25.17;47.90
75497;BME280;64074;47.540;19.072;2023-07-22T10:18:21;100527.81;;;25.30;46.07
75497;BME280;64074;47.540;19.072;2023-07-22T10:21:25;100533.25;;;25.05;45.53
75497;BME280;64074;47.540;19.072;2023-07-22T10:24:29;100527.00;;;25.26;45.44
75497;BME280;64074;47.540;19.072;2023-07-22T10:27:32;100526.97;;;25.23;44.63
75497;BME280;64074;47.540;19.072;2023-07-22T10:30:36;100523.47;;;25.33;44.82
75497;BME280;64074;47.540;19.072;2023-07-22T10:33:40;100522.41;;;25.73;44.03
75497;BME280;64074;47.540;19.072;2023-07-22T10:36:43;100542.22;;;25.64;43.19
75497;BME280;64074;47.540;19.072;2023-07-22T10:39:46;100532.13;;;25.24;43.08
75497;BME280;64074;47.540;19.072;2023-07-22T10:45:58;100511.34;;;25.80;41.43
75497;BME280;64074;47.540;19.072;2023-07-22T10:49:15;100517.28;;;25.96;41.76
75497;BME280;64074;47.540;19.072;2023-07-22T10:52:38;100516.91;;;25.94;41.31
75497;BME280;64074;47.540;19.072;2023-07-22T10:59:12;100503.00;;;26.01;41.12
75497;BME280;64074;47.540;19.072;2023-07-22T11:02:27;100502.19;;;26.01;41.79
75497;BME280;64074;47.540;19.072;2023-07-22T11:05:50;100503.41;;;26.57;41.03
75497;BME280;64074;47.540;19.072;2023-07-22T11:08:53;100501.78;;;26.70;39.86
75497;BME280;64074;47.540;19.072;2023-07-22T11:15:04;100495.28;;;27.23;40.57
75497;BME280;64074;47.540;19.072;2023-07-22T11:18:08;100489.41;;;27.03;39.53
75497;BME280;64074;47.540;19.072;2023-07-22T11:21:11;100478.59;;;27.19;38.25
75497;BME280;64074;47.540;19.072;2023-07-22T11:24:15;100489.03;;;26.87;38.32
75497;BME280;64074;47.540;19.072;2023-07-22T11:27:18;100487.31;;;27.25;37.50
75497;BME280;64074;47.540;19.072;2023-07-22T11:30:24;100479.19;;;27.59;37.23
75497;BME280;64074;47.540;19.072;2023-07-22T11:33:37;100467.91;;;27.80;36.06
75497;BME280;64074;47.540;19.072;2023-07-22T11:36:41;100469.56;;;27.71;35.06
75497;BME280;64074;47.540;19.072;2023-07-22T11:39:44;100464.38;;;28.25;35.62
75497;BME280;64074;47.540;19.072;2023-07-22T11:42:49;100470.13;;;28.03;36.02
75497;BME280;64074;47.540;19.072;2023-07-22T11:45:53;100471.19;;;28.61;35.40
75497;BME280;64074;47.540;19.072;2023-07-22T11:48:56;100478.81;;;28.12;35.66
75497;BME280;64074;47.540;19.072;2023-07-22T11:52:03;100457.97;;;28.24;34.45
75497;BME280;64074;47.540;19.072;2023-07-22T11:55:07;100466.66;;;27.88;35.50
75497;BME280;64074;47.540;19.072;2023-07-22T11:58:14;100463.94;;;27.81;33.42
75497;BME280;64074;47.540;19.072;2023-07-22T12:01:17;100460.06;;;28.58;33.66
75497;BME280;64074;47.540;19.072;2023-07-22T12:04:23;100459.09;;;28.37;33.17
75497;BME280;64074;47.540;19.072;2023-07-22T12:07:37;100455.50;;;29.08;32.33
75497;BME280;64074;47.540;19.072;2023-07-22T12:10:41;100455.72;;;29.79;31.75
75497;BME280;64074;47.540;19.072;2023-07-22T12:13:44;100460.06;;;29.26;31.84
75497;BME280;64074;47.540;19.072;2023-07-22T12:16:55;100452.69;;;28.74;32.78
75497;BME280;64074;47.540;19.072;2023-07-22T12:19:59;100455.75;;;30.02;30.20
75497;BME280;64074;47.540;19.072;2023-07-22T12:23:03;100449.91;;;30.83;28.35
75497;BME280;64074;47.540;19.072;2023-07-22T12:26:07;100459.16;;;31.00;28.38
75497;BME280;64074;47.540;19.072;2023-07-22T12:29:10;100455.50;;;30.83;28.57
75497;BME280;64074;47.540;19.072;2023-07-22T12:32:14;100450.75;;;31.56;27.19
75497;BME280;64074;47.540;19.072;2023-07-22T12:35:18;100449.38;;;31.80;27.07
75497;BME280;64074;47.540;19.072;2023-07-22T12:38:22;100449.03;;;32.27;26.24
75497;BME280;64074;47.540;19.072;2023-07-22T12:41:24;100446.31;;;30.63;28.58
75497;BME280;64074;47.540;19.072;2023-07-22T12:44:28;100451.31;;;31.83;28.17
75497;BME280;64074;47.540;19.072;2023-07-22T12:47:32;100447.75;;;33.02;26.40
75497;BME280;64074;47.540;19.072;2023-07-22T12:50:35;100441.91;;;32.06;25.58
75497;BME280;64074;47.540;19.072;2023-07-22T12:53:39;100432.78;;;32.63;25.11
75497;BME280;64074;47.540;19.072;2023-07-22T12:56:42;100433.28;;;33.42;25.50
75497;BME280;64074;47.540;19.072;2023-07-22T12:59:45;100428.63;;;33.10;25.36
75497;BME280;64074;47.540;19.072;2023-07-22T13:02:51;100436.38;;;30.98;27.92
75497;BME280;64074;47.540;19.072;2023-07-22T13:05:54;100432.56;;;33.12;26.36
75497;BME280;64074;47.540;19.072;2023-07-22T13:08:57;100418.75;;;32.34;26.81
75497;BME280;64074;47.540;19.072;2023-07-22T13:12:00;100425.31;;;33.40;25.06
75497;BME280;64074;47.540;19.072;2023-07-22T13:15:05;100428.09;;;34.38;23.91
75497;BME280;64074;47.540;19.072;2023-07-22T13:18:08;100419.84;;;32.95;25.38
75497;BME280;64074;47.540;19.072;2023-07-22T13:21:12;100415.59;;;34.61;24.82
75497;BME280;64074;47.540;19.072;2023-07-22T13:24:15;100412.03;;;35.44;22.42
75497;BME280;64074;47.540;19.072;2023-07-22T13:27:19;100407.41;;;34.76;22.42
75497;BME280;64074;47.540;19.072;2023-07-22T13:30:21;100416.88;;;32.73;24.25
75497;BME280;64074;47.540;19.072;2023-07-22T13:33:24;100412.31;;;34.06;22.68
75497;BME280;64074;47.540;19.072;2023-07-22T13:36:28;100408.50;;;34.78;22.05
75497;BME280;64074;47.540;19.072;2023-07-22T13:39:30;100401.50;;;34.39;22.21
75497;BME280;64074;47.540;19.072;2023-07-22T13:42:34;100413.47;;;35.58;21.47
75497;BME280;64074;47.540;19.072;2023-07-22T13:45:36;100418.41;;;33.03;24.15
75497;BME280;64074;47.540;19.072;2023-07-22T13:48:40;100410.66;;;33.96;23.42
75497;BME280;64074;47.540;19.072;2023-07-22T13:51:42;100398.59;;;34.30;22.83
75497;BME280;64074;47.540;19.072;2023-07-22T13:54:45;100410.59;;;34.65;22.89
75497;BME280;64074;47.540;19.072;2023-07-22T13:57:48;100404.56;;;34.32;23.13
75497;BME280;64074;47.540;19.072;2023-07-22T14:00:52;100400.53;;;34.99;22.60
75497;BME280;64074;47.540;19.072;2023-07-22T14:03:54;100408.13;;;35.60;21.74
75497;BME280;64074;47.540;19.072;2023-07-22T14:06:57;100404.16;;;33.74;22.67
75497;BME280;64074;47.540;19.072;2023-07-22T14:10:01;100410.91;;;33.63;22.98
75497;BME280;64074;47.540;19.072;2023-07-22T14:13:07;100408.41;;;33.91;22.81
75497;BME280;64074;47.540;19.072;2023-07-22T14:16:11;100401.06;;;34.84;21.90
75497;BME280;64074;47.540;19.072;2023-07-22T14:19:24;100400.72;;;36.12;20.82
75497;BME280;64074;47.540;19.072;2023-07-22T14:22:28;100398.34;;;34.37;21.62
75497;BME280;64074;47.540;19.072;2023-07-22T14:25:31;100383.38;;;34.84;21.22
75497;BME280;64074;47.540;19.072;2023-07-22T14:28:34;100391.47;;;36.02;20.28
75497;BME280;64074;47.540;19.072;2023-07-22T14:31:37;100391.06;;;33.92;21.83
75497;BME280;64074;47.540;19.072;2023-07-22T14:34:41;100395.94;;;34.14;22.25
75497;BME280;64074;47.540;19.072;2023-07-22T14:37:44;100381.59;;;35.08;20.93
75497;BME280;64074;47.540;19.072;2023-07-22T14:40:48;100384.00;;;34.44;21.78
75497;BME280;64074;47.540;19.072;2023-07-22T14:43:51;100383.38;;;34.06;21.79
75497;BME280;64074;47.540;19.072;2023-07-22T14:46:55;100383.25;;;33.24;23.48
75497;BME280;64074;47.540;19.072;2023-07-22T14:49:58;100384.56;;;32.23;24.33
75497;BME280;64074;47.540;19.072;2023-07-22T14:53:01;100380.88;;;30.92;25.18
75497;BME280;64074;47.540;19.072;2023-07-22T14:56:04;100365.84;;;30.67;26.32
75497;BME280;64074;47.540;19.072;2023-07-22T14:59:09;100353.91;;;31.67;25.36
75497;BME280;64074;47.540;19.072;2023-07-22T15:02:13;100361.72;;;31.27;26.69
75497;BME280;64074;47.540;19.072;2023-07-22T15:05:16;100366.13;;;31.28;26.46
75497;BME280;64074;47.540;19.072;2023-07-22T15:08:19;100369.19;;;30.38;27.35
75497;BME280;64074;47.540;19.072;2023-07-22T15:11:22;100379.84;;;30.23;27.74
75497;BME280;64074;47.540;19.072;2023-07-22T15:14:25;100373.41;;;30.07;26.66
75497;BME280;64074;47.540;19.072;2023-07-22T15:17:29;100367.94;;;29.96;26.75
75497;BME280;64074;47.540;19.072;2023-07-22T15:20:35;100364.72;;;29.97;26.58
75497;BME280;64074;47.540;19.072;2023-07-22T15:23:38;100349.94;;;30.20;26.51
75497;BME280;64074;47.540;19.072;2023-07-22T15:26:41;100347.91;;;30.01;27.46
75497;BME280;64074;47.540;19.072;2023-07-22T15:29:44;100348.59;;;30.09;27.45
75497;BME280;64074;47.540;19.072;2023-07-22T15:32:47;100345.56;;;30.19;28.34
75497;BME280;64074;47.540;19.072;2023-07-22T15:35:51;100354.84;;;29.93;27.95
75497;BME280;64074;47.540;19.072;2023-07-22T15:38:55;100358.97;;;29.61;27.88
75497;BME280;64074;47.540;19.072;2023-07-22T15:41:58;100360.03;;;29.44;28.27
75497;BME280;64074;47.540;19.072;2023-07-22T15:45:02;100370.75;;;29.49;27.76
75497;BME280;64074;47.540;19.072;2023-07-22T15:48:06;100375.34;;;30.10;27.44
75497;BME280;64074;47.540;19.072;2023-07-22T15:51:10;100379.50;;;30.21;26.72
75497;BME280;64074;47.540;19.072;2023-07-22T15:54:12;100377.00;;;30.47;26.73
75497;BME280;64074;47.540;19.072;2023-07-22T15:57:19;100371.97;;;30.18;27.39
75497;BME280;64074;47.540;19.072;2023-07-22T16:00:21;100370.09;;;29.88;27.54